sensor_id;sensor_type;location;lat;lon;timestamp;temperature;humidity
49224;DHT22;35050;51.316;5.994;2023-02-23T00:02:10;10.50;99.90
49224;DHT22;35050;51.316;5.994;2023-02-23T00:04:37;10.50;99.90
49224;DHT22;35050;51.316;5.994;2023-02-23T00:07:03;10.30;99.90
49224;DHT22;35050;51.316;5.994;2023-02-23T00:09:31;10.40;99.90
49224;DHT22;35050;51.316;5.994;2023-02-23T00:12:01;10.40;99.90
49224;DHT22;35050;51.316;5.994;2023-02-23T00:14:34;10.50;99.90
49224;DHT22;35050;51.316;5.994;2023-02-23T00:17:02;10.40;99.90
49224;DHT22;35050;51.316;5.994;2023-02-23T00:19:27;10.40;99.90
49224;DHT22;35050;51.316;5.994;2023-02-23T00:21:53;10.40;99.90
49224;DHT22;35050;51.316;5.994;2023-02-23T00:24:19;10.40;99.90
49224;DHT22;35050;51.316;5.994;2023-02-23T00:26:51;10.40;99.90
49224;DHT22;35050;51.316;5.994;2023-02-23T00:29:21;10.40;99.90
49224;DHT22;35050;51.316;5.994;2023-02-23T00:31:48;10.40;99.90
49224;DHT22;35050;51.316;5.994;2023-02-23T00:34:16;10.40;99.90
49224;DHT22;35050;51.316;5.994;2023-02-23T00:36:48;10.40;99.90
49224;DHT22;35050;51.316;5.994;2023-02-23T00:39:13;10.40;99.90
49224;DHT22;35050;51.316;5.994;2023-02-23T00:41:54;10.40;99.90
49224;DHT22;35050;51.316;5.994;2023-02-23T00:44:20;10.40;99.90
49224;DHT22;35050;51.316;5.994;2023-02-23T00:46:48;10.30;99.90
49224;DHT22;35050;51.316;5.994;2023-02-23T00:49:16;10.30;99.90
49224;DHT22;35050;51.316;5.994;2023-02-23T00:51:42;10.30;99.90
49224;DHT22;35050;51.316;5.994;2023-02-23T00:54:11;10.30;99.90
49224;DHT22;35050;51.316;5.994;2023-02-23T00:56:38;10.30;99.90
49224;DHT22;35050;51.316;5.994;2023-02-23T00:59:04;10.30;99.90
49224;DHT22;35050;51.316;5.994;2023-02-23T01:01:29;10.30;99.90
49224;DHT22;35050;51.316;5.994;2023-02-23T01:03:55;10.40;99.90
49224;DHT22;35050;51.316;5.994;2023-02-23T01:06:21;10.40;99.90
49224;DHT22;35050;51.316;5.994;2023-02-23T01:08:48;10.30;99.90
49224;DHT22;35050;51.316;5.994;2023-02-23T01:11:20;10.30;99.90
49224;DHT22;35050;51.316;5.994;2023-02-23T01:13:48;10.30;99.90
49224;DHT22;35050;51.316;5.994;2023-02-23T01:16:20;10.30;99.90
49224;DHT22;35050;51.316;5.994;2023-02-23T01:18:46;10.30;99.90
49224;DHT22;35050;51.316;5.994;2023-02-23T01:21:23;10.30;99.90
49224;DHT22;35050;51.316;5.994;2023-02-23T01:23:49;10.20;99.90
49224;DHT22;35050;51.316;5.994;2023-02-23T01:26:29;10.10;99.90
49224;DHT22;35050;51.316;5.994;2023-02-23T01:29:00;10.20;99.90
49224;DHT22;35050;51.316;5.994;2023-02-23T01:31:30;10.20;99.90
49224;DHT22;35050;51.316;5.994;2023-02-23T01:33:58;10.20;99.90
49224;DHT22;35050;51.316;5.994;2023-02-23T01:36:24;10.20;99.90
49224;DHT22;35050;51.316;5.994;2023-02-23T01:38:51;10.20;99.90
49224;DHT22;35050;51.316;5.994;2023-02-23T01:41:21;10.20;99.90
49224;DHT22;35050;51.316;5.994;2023-02-23T01:44:02;10.20;99.90
49224;DHT22;35050;51.316;5.994;2023-02-23T01:46:47;10.20;99.90
49224;DHT22;35050;51.316;5.994;2023-02-23T01:49:20;10.20;99.90
49224;DHT22;35050;51.316;5.994;2023-02-23T01:52:04;10.20;99.90
49224;DHT22;35050;51.316;5.994;2023-02-23T01:54:32;10.20;99.90
49224;DHT22;35050;51.316;5.994;2023-02-23T01:57:02;10.30;99.90
49224;DHT22;35050;51.316;5.994;2023-02-23T01:59:42;10.20;99.90
49224;DHT22;35050;51.316;5.994;2023-02-23T02:02:08;10.20;99.90
49224;DHT22;35050;51.316;5.994;2023-02-23T02:04:36;10.20;99.90
49224;DHT22;35050;51.316;5.994;2023-02-23T02:07:22;10.20;99.90
49224;DHT22;35050;51.316;5.994;2023-02-23T02:09:52;10.20;99.90
49224;DHT22;35050;51.316;5.994;2023-02-23T02:12:42;10.20;99.90
49224;DHT22;35050;51.316;5.994;2023-02-23T02:15:10;10.20;99.90
49224;DHT22;35050;51.316;5.994;2023-02-23T02:20:33;10.20;99.90
49224;DHT22;35050;51.316;5.994;2023-02-23T02:40:20;10.00;99.90
49224;DHT22;35050;51.316;5.994;2023-02-23T02:43:10;10.10;99.90
49224;DHT22;35050;51.316;5.994;2023-02-23T02:48:32;10.10;99.90
49224;DHT22;35050;51.316;5.994;2023-02-23T02:51:12;10.10;99.90
49224;DHT22;35050;51.316;5.994;2023-02-23T02:54:12;10.10;99.90
49224;DHT22;35050;51.316;5.994;2023-02-23T02:56:42;10.10;99.90
49224;DHT22;35050;51.316;5.994;2023-02-23T02:59:16;10.00;99.90
49224;DHT22;35050;51.316;5.994;2023-02-23T03:02:02;10.00;99.90
49224;DHT22;35050;51.316;5.994;2023-02-23T03:04:47;10.00;99.90
49224;DHT22;35050;51.316;5.994;2023-02-23T03:08:12;10.10;99.90
49224;DHT22;35050;51.316;5.994;2023-02-23T03:11:05;10.10;99.90
49224;DHT22;35050;51.316;5.994;2023-02-23T03:20:24;10.00;99.90
49224;DHT22;35050;51.316;5.994;2023-02-23T03:23:23;10.00;99.90
49224;DHT22;35050;51.316;5.994;2023-02-23T03:31:58;10.00;99.90
49224;DHT22;35050;51.316;5.994;2023-02-23T03:34:55;10.00;99.90
49224;DHT22;35050;51.316;5.994;2023-02-23T03:37:47;10.10;99.90
49224;DHT22;35050;51.316;5.994;2023-02-23T03:40:36;10.00;99.90
49224;DHT22;35050;51.316;5.994;2023-02-23T03:43:36;10.00;99.90
49224;DHT22;35050;51.316;5.994;2023-02-23T03:46:23;10.00;99.90
49224;DHT22;35050;51.316;5.994;2023-02-23T03:49:10;10.00;99.90
49224;DHT22;35050;51.316;5.994;2023-02-23T03:52:04;10.00;99.90
49224;DHT22;35050;51.316;5.994;2023-02-23T03:55:02;10.00;99.90
49224;DHT22;35050;51.316;5.994;2023-02-23T03:57:51;9.90;99.90
49224;DHT22;35050;51.316;5.994;2023-02-23T04:00:41;10.00;99.90
49224;DHT22;35050;51.316;5.994;2023-02-23T04:03:26;10.00;99.90
49224;DHT22;35050;51.316;5.994;2023-02-23T04:06:13;10.00;99.90
49224;DHT22;35050;51.316;5.994;2023-02-23T04:09:00;10.00;99.90
49224;DHT22;35050;51.316;5.994;2023-02-23T04:17:34;10.00;99.90
49224;DHT22;35050;51.316;5.994;2023-02-23T04:20:00;9.90;99.90
49224;DHT22;35050;51.316;5.994;2023-02-23T04:22:25;10.00;99.90
49224;DHT22;35050;51.316;5.994;2023-02-23T04:24:51;9.90;99.90
49224;DHT22;35050;51.316;5.994;2023-02-23T04:27:17;9.90;99.90
49224;DHT22;35050;51.316;5.994;2023-02-23T04:29:42;9.90;99.90
49224;DHT22;35050;51.316;5.994;2023-02-23T04:32:13;9.90;99.90
49224;DHT22;35050;51.316;5.994;2023-02-23T04:34:40;9.80;99.90
49224;DHT22;35050;51.316;5.994;2023-02-23T04:37:06;9.90;99.90
49224;DHT22;35050;51.316;5.994;2023-02-23T04:39:31;9.80;99.90
49224;DHT22;35050;51.316;5.994;2023-02-23T04:41:57;9.80;99.90
49224;DHT22;35050;51.316;5.994;2023-02-23T04:44:22;9.80;99.90
49224;DHT22;35050;51.316;5.994;2023-02-23T04:46:48;9.80;99.90
49224;DHT22;35050;51.316;5.994;2023-02-23T04:49:14;9.80;99.90
49224;DHT22;35050;51.316;5.994;2023-02-23T04:51:39;9.70;99.90
49224;DHT22;35050;51.316;5.994;2023-02-23T04:54:05;9.60;99.90
49224;DHT22;35050;51.316;5.994;2023-02-23T04:56:31;9.50;99.90
49224;DHT22;35050;51.316;5.994;2023-02-23T04:58:57;9.70;99.90
49224;DHT22;35050;51.316;5.994;2023-02-23T05:01:23;9.60;99.90
49224;DHT22;35050;51.316;5.994;2023-02-23T05:03:49;9.60;99.90
49224;DHT22;35050;51.316;5.994;2023-02-23T05:06:18;9.50;99.90
49224;DHT22;35050;51.316;5.994;2023-02-23T05:08:44;9.50;99.90
49224;DHT22;35050;51.316;5.994;2023-02-23T05:11:10;9.60;99.90
49224;DHT22;35050;51.316;5.994;2023-02-23T05:13:36;9.50;99.90
49224;DHT22;35050;51.316;5.994;2023-02-23T05:16:02;9.50;99.90
49224;DHT22;35050;51.316;5.994;2023-02-23T05:18:28;9.50;99.90
49224;DHT22;35050;51.316;5.994;2023-02-23T05:21:01;9.60;99.90
49224;DHT22;35050;51.316;5.994;2023-02-23T05:23:26;9.60;99.90
49224;DHT22;35050;51.316;5.994;2023-02-23T05:25:52;9.60;99.90
49224;DHT22;35050;51.316;5.994;2023-02-23T05:28:18;9.70;99.90
49224;DHT22;35050;51.316;5.994;2023-02-23T05:30:43;9.70;99.90
49224;DHT22;35050;51.316;5.994;2023-02-23T05:33:09;9.70;99.90
49224;DHT22;35050;51.316;5.994;2023-02-23T05:35:38;9.60;99.90
49224;DHT22;35050;51.316;5.994;2023-02-23T05:38:05;9.60;99.90
49224;DHT22;35050;51.316;5.994;2023-02-23T05:40:30;9.60;99.90
49224;DHT22;35050;51.316;5.994;2023-02-23T05:42:59;9.60;99.90
49224;DHT22;35050;51.316;5.994;2023-02-23T05:45:25;9.60;99.90
49224;DHT22;35050;51.316;5.994;2023-02-23T05:47:51;9.50;99.90
49224;DHT22;35050;51.316;5.994;2023-02-23T05:50:17;9.50;99.90
49224;DHT22;35050;51.316;5.994;2023-02-23T05:52:42;9.40;99.90
49224;DHT22;35050;51.316;5.994;2023-02-23T05:55:10;9.40;99.90
49224;DHT22;35050;51.316;5.994;2023-02-23T05:57:39;9.40;99.90
49224;DHT22;35050;51.316;5.994;2023-02-23T06:00:06;9.50;99.90
49224;DHT22;35050;51.316;5.994;2023-02-23T06:02:32;9.50;99.90
49224;DHT22;35050;51.316;5.994;2023-02-23T06:04:59;9.50;99.90
49224;DHT22;35050;51.316;5.994;2023-02-23T06:07:25;9.50;99.90
49224;DHT22;35050;51.316;5.994;2023-02-23T06:09:51;9.40;99.90
49224;DHT22;35050;51.316;5.994;2023-02-23T06:12:16;9.40;99.90
49224;DHT22;35050;51.316;5.994;2023-02-23T06:14:42;9.40;99.90
49224;DHT22;35050;51.316;5.994;2023-02-23T06:17:07;9.40;99.90
49224;DHT22;35050;51.316;5.994;2023-02-23T06:19:33;9.40;99.90
49224;DHT22;35050;51.316;5.994;2023-02-23T06:21:59;9.50;99.90
49224;DHT22;35050;51.316;5.994;2023-02-23T06:24:25;9.40;99.90
49224;DHT22;35050;51.316;5.994;2023-02-23T06:26:51;9.40;99.90
49224;DHT22;35050;51.316;5.994;2023-02-23T06:29:16;9.40;99.90
49224;DHT22;35050;51.316;5.994;2023-02-23T06:31:42;9.40;99.90
49224;DHT22;35050;51.316;5.994;2023-02-23T06:34:09;9.50;99.90
49224;DHT22;35050;51.316;5.994;2023-02-23T06:36:35;9.30;99.90
49224;DHT22;35050;51.316;5.994;2023-02-23T06:39:02;9.40;99.90
49224;DHT22;35050;51.316;5.994;2023-02-23T06:41:28;9.30;99.90
49224;DHT22;35050;51.316;5.994;2023-02-23T06:43:55;9.40;99.90
49224;DHT22;35050;51.316;5.994;2023-02-23T06:46:21;9.20;99.90
49224;DHT22;35050;51.316;5.994;2023-02-23T06:48:47;9.30;99.90
49224;DHT22;35050;51.316;5.994;2023-02-23T06:51:13;9.40;99.90
49224;DHT22;35050;51.316;5.994;2023-02-23T06:53:38;9.40;99.90
49224;DHT22;35050;51.316;5.994;2023-02-23T06:56:04;9.40;99.90
49224;DHT22;35050;51.316;5.994;2023-02-23T06:58:30;9.30;99.90
49224;DHT22;35050;51.316;5.994;2023-02-23T07:00:56;9.40;99.90
49224;DHT22;35050;51.316;5.994;2023-02-23T07:03:24;9.40;99.90
49224;DHT22;35050;51.316;5.994;2023-02-23T07:05:51;9.40;99.90
49224;DHT22;35050;51.316;5.994;2023-02-23T07:08:17;9.50;99.90
49224;DHT22;35050;51.316;5.994;2023-02-23T07:10:44;9.50;99.90
49224;DHT22;35050;51.316;5.994;2023-02-23T07:13:10;9.40;99.90
49224;DHT22;35050;51.316;5.994;2023-02-23T07:15:40;9.50;99.90
49224;DHT22;35050;51.316;5.994;2023-02-23T07:18:06;9.40;99.90
49224;DHT22;35050;51.316;5.994;2023-02-23T07:20:32;9.40;99.90
49224;DHT22;35050;51.316;5.994;2023-02-23T07:22:59;9.30;99.90
49224;DHT22;35050;51.316;5.994;2023-02-23T07:25:27;9.40;99.90
49224;DHT22;35050;51.316;5.994;2023-02-23T07:27:54;9.40;99.90
49224;DHT22;35050;51.316;5.994;2023-02-23T07:30:21;9.40;99.90
49224;DHT22;35050;51.316;5.994;2023-02-23T07:32:50;9.40;99.90
49224;DHT22;35050;51.316;5.994;2023-02-23T07:35:16;9.40;99.90
49224;DHT22;35050;51.316;5.994;2023-02-23T07:37:42;9.30;99.90
49224;DHT22;35050;51.316;5.994;2023-02-23T07:40:08;9.30;99.90
49224;DHT22;35050;51.316;5.994;2023-02-23T07:42:34;9.40;99.90
49224;DHT22;35050;51.316;5.994;2023-02-23T07:45:00;9.60;99.90
49224;DHT22;35050;51.316;5.994;2023-02-23T07:47:26;9.50;99.90
49224;DHT22;35050;51.316;5.994;2023-02-23T07:49:59;9.40;99.90
49224;DHT22;35050;51.316;5.994;2023-02-23T07:52:27;9.30;99.90
49224;DHT22;35050;51.316;5.994;2023-02-23T07:54:53;9.40;99.90
49224;DHT22;35050;51.316;5.994;2023-02-23T07:57:19;9.40;99.90
49224;DHT22;35050;51.316;5.994;2023-02-23T07:59:46;9.40;99.90
49224;DHT22;35050;51.316;5.994;2023-02-23T08:02:13;9.40;99.90
49224;DHT22;35050;51.316;5.994;2023-02-23T08:04:39;9.40;99.90
49224;DHT22;35050;51.316;5.994;2023-02-23T08:07:05;9.50;99.90
49224;DHT22;35050;51.316;5.994;2023-02-23T08:09:31;9.40;99.90
49224;DHT22;35050;51.316;5.994;2023-02-23T08:12:00;9.40;99.90
49224;DHT22;35050;51.316;5.994;2023-02-23T08:14:26;9.50;99.90
49224;DHT22;35050;51.316;5.994;2023-02-23T08:16:51;9.50;99.90
49224;DHT22;35050;51.316;5.994;2023-02-23T08:19:17;9.50;99.90
49224;DHT22;35050;51.316;5.994;2023-02-23T08:21:47;9.40;99.90
49224;DHT22;35050;51.316;5.994;2023-02-23T08:24:14;9.40;99.90
49224;DHT22;35050;51.316;5.994;2023-02-23T08:26:40;9.40;99.90
49224;DHT22;35050;51.316;5.994;2023-02-23T08:29:06;9.50;99.90
49224;DHT22;35050;51.316;5.994;2023-02-23T08:31:33;9.50;99.90
49224;DHT22;35050;51.316;5.994;2023-02-23T08:33:58;9.40;99.90
49224;DHT22;35050;51.316;5.994;2023-02-23T08:36:24;9.50;99.90
49224;DHT22;35050;51.316;5.994;2023-02-23T08:38:50;9.50;99.90
49224;DHT22;35050;51.316;5.994;2023-02-23T08:41:16;9.50;99.90
49224;DHT22;35050;51.316;5.994;2023-02-23T08:43:42;9.50;99.90
49224;DHT22;35050;51.316;5.994;2023-02-23T08:46:08;9.50;99.90
49224;DHT22;35050;51.316;5.994;2023-02-23T08:48:34;9.60;99.90
49224;DHT22;35050;51.316;5.994;2023-02-23T08:51:00;9.50;99.90
49224;DHT22;35050;51.316;5.994;2023-02-23T08:53:26;9.70;99.90
49224;DHT22;35050;51.316;5.994;2023-02-23T08:56:03;9.60;99.90
49224;DHT22;35050;51.316;5.994;2023-02-23T08:58:29;9.60;99.90
49224;DHT22;35050;51.316;5.994;2023-02-23T09:00:55;9.50;99.90
49224;DHT22;35050;51.316;5.994;2023-02-23T09:03:22;9.60;99.90
49224;DHT22;35050;51.316;5.994;2023-02-23T09:05:51;9.50;99.90
49224;DHT22;35050;51.316;5.994;2023-02-23T09:08:17;9.50;99.90
49224;DHT22;35050;51.316;5.994;2023-02-23T09:10:43;9.50;99.90
49224;DHT22;35050;51.316;5.994;2023-02-23T09:13:10;9.50;99.90
49224;DHT22;35050;51.316;5.994;2023-02-23T09:15:39;9.50;99.90
49224;DHT22;35050;51.316;5.994;2023-02-23T09:18:10;9.50;99.90
49224;DHT22;35050;51.316;5.994;2023-02-23T09:20:40;9.60;99.90
49224;DHT22;35050;51.316;5.994;2023-02-23T09:23:05;9.60;99.90
49224;DHT22;35050;51.316;5.994;2023-02-23T09:25:31;9.60;99.90
49224;DHT22;35050;51.316;5.994;2023-02-23T09:27:57;9.60;99.90
49224;DHT22;35050;51.316;5.994;2023-02-23T09:30:25;9.60;99.90
49224;DHT22;35050;51.316;5.994;2023-02-23T09:32:51;9.60;99.90
49224;DHT22;35050;51.316;5.994;2023-02-23T09:35:18;9.70;99.90
49224;DHT22;35050;51.316;5.994;2023-02-23T09:37:50;9.80;99.90
49224;DHT22;35050;51.316;5.994;2023-02-23T09:40:18;9.80;99.90
49224;DHT22;35050;51.316;5.994;2023-02-23T09:45:41;9.60;99.90
49224;DHT22;35050;51.316;5.994;2023-02-23T09:48:22;9.50;99.90
49224;DHT22;35050;51.316;5.994;2023-02-23T09:50:54;9.70;99.90
49224;DHT22;35050;51.316;5.994;2023-02-23T09:53:25;9.70;99.90
49224;DHT22;35050;51.316;5.994;2023-02-23T09:55:53;9.80;99.90
49224;DHT22;35050;51.316;5.994;2023-02-23T09:58:23;9.70;99.90
49224;DHT22;35050;51.316;5.994;2023-02-23T10:04:02;9.60;99.90
49224;DHT22;35050;51.316;5.994;2023-02-23T10:06:32;9.60;99.90
49224;DHT22;35050;51.316;5.994;2023-02-23T10:18:11;9.80;99.90
49224;DHT22;35050;51.316;5.994;2023-02-23T10:23:25;9.70;99.90
49224;DHT22;35050;51.316;5.994;2023-02-23T10:25:56;9.90;99.90
49224;DHT22;35050;51.316;5.994;2023-02-23T10:28:24;9.90;99.90
49224;DHT22;35050;51.316;5.994;2023-02-23T10:30:53;9.90;99.90
49224;DHT22;35050;51.316;5.994;2023-02-23T10:35:51;10.00;99.90
49224;DHT22;35050;51.316;5.994;2023-02-23T10:38:19;9.90;99.90
49224;DHT22;35050;51.316;5.994;2023-02-23T10:40:50;10.00;99.90
49224;DHT22;35050;51.316;5.994;2023-02-23T10:43:18;10.20;99.90
49224;DHT22;35050;51.316;5.994;2023-02-23T10:45:47;10.20;99.90
49224;DHT22;35050;51.316;5.994;2023-02-23T10:48:23;10.20;99.90
49224;DHT22;35050;51.316;5.994;2023-02-23T10:50:53;10.20;99.90
49224;DHT22;35050;51.316;5.994;2023-02-23T10:53:25;10.10;99.90
49224;DHT22;35050;51.316;5.994;2023-02-23T10:58:25;10.00;99.90
49224;DHT22;35050;51.316;5.994;2023-02-23T11:03:39;10.10;99.90
49224;DHT22;35050;51.316;5.994;2023-02-23T11:06:12;10.10;99.90
49224;DHT22;35050;51.316;5.994;2023-02-23T11:08:50;10.20;99.90
49224;DHT22;35050;51.316;5.994;2023-02-23T11:11:19;10.30;99.90
49224;DHT22;35050;51.316;5.994;2023-02-23T11:13:49;10.10;99.90
49224;DHT22;35050;51.316;5.994;2023-02-23T11:16:37;10.10;99.90
49224;DHT22;35050;51.316;5.994;2023-02-23T11:19:05;10.10;99.90
49224;DHT22;35050;51.316;5.994;2023-02-23T11:21:38;10.30;99.90
49224;DHT22;35050;51.316;5.994;2023-02-23T11:24:27;10.40;99.90
49224;DHT22;35050;51.316;5.994;2023-02-23T11:26:58;10.40;99.90
49224;DHT22;35050;51.316;5.994;2023-02-23T11:29:43;10.50;99.90
49224;DHT22;35050;51.316;5.994;2023-02-23T11:32:21;10.60;99.90
49224;DHT22;35050;51.316;5.994;2023-02-23T11:37:33;10.70;99.90
49224;DHT22;35050;51.316;5.994;2023-02-23T11:40:21;10.70;99.90
49224;DHT22;35050;51.316;5.994;2023-02-23T11:42:56;10.90;99.90
49224;DHT22;35050;51.316;5.994;2023-02-23T11:45:28;10.90;99.90
49224;DHT22;35050;51.316;5.994;2023-02-23T11:47:58;10.90;99.90
49224;DHT22;35050;51.316;5.994;2023-02-23T11:50:27;10.80;99.90
49224;DHT22;35050;51.316;5.994;2023-02-23T11:55:26;10.70;99.90
49224;DHT22;35050;51.316;5.994;2023-02-23T11:58:28;10.70;99.90
49224;DHT22;35050;51.316;5.994;2023-02-23T12:00:56;10.60;99.90
49224;DHT22;35050;51.316;5.994;2023-02-23T12:03:24;10.60;99.90
49224;DHT22;35050;51.316;5.994;2023-02-23T12:05:53;10.60;99.90
49224;DHT22;35050;51.316;5.994;2023-02-23T12:10:58;10.40;99.90
49224;DHT22;35050;51.316;5.994;2023-02-23T12:13:37;10.60;99.90
49224;DHT22;35050;51.316;5.994;2023-02-23T12:16:11;10.70;99.90
49224;DHT22;35050;51.316;5.994;2023-02-23T12:18:58;10.60;99.90
49224;DHT22;35050;51.316;5.994;2023-02-23T12:21:42;10.70;99.90
49224;DHT22;35050;51.316;5.994;2023-02-23T12:24:33;10.50;99.90
49224;DHT22;35050;51.316;5.994;2023-02-23T12:27:26;10.60;99.90
49224;DHT22;35050;51.316;5.994;2023-02-23T12:30:19;10.90;99.90
49224;DHT22;35050;51.316;5.994;2023-02-23T12:32:58;10.80;99.90
49224;DHT22;35050;51.316;5.994;2023-02-23T12:38:33;10.80;99.90
49224;DHT22;35050;51.316;5.994;2023-02-23T12:41:13;10.80;99.90
49224;DHT22;35050;51.316;5.994;2023-02-23T12:43:51;10.80;99.90
49224;DHT22;35050;51.316;5.994;2023-02-23T12:46:29;10.80;99.90
49224;DHT22;35050;51.316;5.994;2023-02-23T12:49:12;10.70;99.90
49224;DHT22;35050;51.316;5.994;2023-02-23T12:51:50;10.80;99.90
49224;DHT22;35050;51.316;5.994;2023-02-23T12:54:18;10.90;99.90
49224;DHT22;35050;51.316;5.994;2023-02-23T12:57:03;10.80;99.90
49224;DHT22;35050;51.316;5.994;2023-02-23T13:02:28;11.00;99.90
49224;DHT22;35050;51.316;5.994;2023-02-23T13:10:31;10.90;99.90
49224;DHT22;35050;51.316;5.994;2023-02-23T13:20:50;11.00;99.90
49224;DHT22;35050;51.316;5.994;2023-02-23T13:28:58;10.80;99.90
49224;DHT22;35050;51.316;5.994;2023-02-23T13:31:30;10.90;99.90
49224;DHT22;35050;51.316;5.994;2023-02-23T13:33:57;11.00;99.90
49224;DHT22;35050;51.316;5.994;2023-02-23T13:36:26;10.80;99.90
49224;DHT22;35050;51.316;5.994;2023-02-23T13:38:57;10.70;99.90
49224;DHT22;35050;51.316;5.994;2023-02-23T13:41:36;10.60;99.90
49224;DHT22;35050;51.316;5.994;2023-02-23T13:44:16;10.60;99.90
49224;DHT22;35050;51.316;5.994;2023-02-23T13:49:39;10.70;99.90
49224;DHT22;35050;51.316;5.994;2023-02-23T13:54:59;10.50;99.90
49224;DHT22;35050;51.316;5.994;2023-02-23T13:57:29;10.50;99.90
49224;DHT22;35050;51.316;5.994;2023-02-23T13:59:56;10.40;99.90
49224;DHT22;35050;51.316;5.994;2023-02-23T14:02:39;10.30;99.90
49224;DHT22;35050;51.316;5.994;2023-02-23T14:07:46;10.60;99.90
49224;DHT22;35050;51.316;5.994;2023-02-23T14:15:44;10.50;99.90
49224;DHT22;35050;51.316;5.994;2023-02-23T14:24:15;10.60;99.90
49224;DHT22;35050;51.316;5.994;2023-02-23T14:27:31;10.50;99.90
49224;DHT22;35050;51.316;5.994;2023-02-23T14:32:30;10.60;99.90
49224;DHT22;35050;51.316;5.994;2023-02-23T14:35:03;10.60;99.90
49224;DHT22;35050;51.316;5.994;2023-02-23T14:40:23;10.50;99.90
49224;DHT22;35050;51.316;5.994;2023-02-23T14:42:55;10.50;99.90
49224;DHT22;35050;51.316;5.994;2023-02-23T14:45:25;10.50;99.90
49224;DHT22;35050;51.316;5.994;2023-02-23T14:47:54;10.40;99.90
49224;DHT22;35050;51.316;5.994;2023-02-23T14:50:29;10.30;99.90
49224;DHT22;35050;51.316;5.994;2023-02-23T14:52:56;10.20;99.90
49224;DHT22;35050;51.316;5.994;2023-02-23T14:55:26;10.30;99.90
49224;DHT22;35050;51.316;5.994;2023-02-23T14:57:53;10.30;99.90
49224;DHT22;35050;51.316;5.994;2023-02-23T15:02:59;10.30;99.90
49224;DHT22;35050;51.316;5.994;2023-02-23T15:05:31;10.30;99.90
49224;DHT22;35050;51.316;5.994;2023-02-23T15:07:59;10.30;99.90
49224;DHT22;35050;51.316;5.994;2023-02-23T15:10:34;10.20;99.90
49224;DHT22;35050;51.316;5.994;2023-02-23T15:13:12;10.30;99.90
49224;DHT22;35050;51.316;5.994;2023-02-23T15:15:44;10.20;99.90
49224;DHT22;35050;51.316;5.994;2023-02-23T15:18:23;10.10;99.90
49224;DHT22;35050;51.316;5.994;2023-02-23T15:20:50;10.20;99.90
49224;DHT22;35050;51.316;5.994;2023-02-23T15:23:17;10.10;99.90
49224;DHT22;35050;51.316;5.994;2023-02-23T15:25:43;10.20;99.90
49224;DHT22;35050;51.316;5.994;2023-02-23T15:28:28;10.10;99.90
49224;DHT22;35050;51.316;5.994;2023-02-23T15:30:58;10.10;99.90
49224;DHT22;35050;51.316;5.994;2023-02-23T15:33:25;10.10;99.90
49224;DHT22;35050;51.316;5.994;2023-02-23T15:38:55;10.20;99.90
49224;DHT22;35050;51.316;5.994;2023-02-23T15:43:52;10.10;99.90
49224;DHT22;35050;51.316;5.994;2023-02-23T15:46:25;10.10;99.90
49224;DHT22;35050;51.316;5.994;2023-02-23T15:48:52;10.20;99.90
49224;DHT22;35050;51.316;5.994;2023-02-23T15:53:54;10.20;99.90
49224;DHT22;35050;51.316;5.994;2023-02-23T15:56:28;10.20;99.90
49224;DHT22;35050;51.316;5.994;2023-02-23T15:59:04;10.20;99.90
49224;DHT22;35050;51.316;5.994;2023-02-23T16:01:32;10.10;99.90
49224;DHT22;35050;51.316;5.994;2023-02-23T16:04:06;10.00;99.90
49224;DHT22;35050;51.316;5.994;2023-02-23T16:06:54;10.20;99.90
49224;DHT22;35050;51.316;5.994;2023-02-23T16:11:51;10.20;99.90
49224;DHT22;35050;51.316;5.994;2023-02-23T16:14:18;10.30;99.90
49224;DHT22;35050;51.316;5.994;2023-02-23T16:16:49;10.30;99.90
49224;DHT22;35050;51.316;5.994;2023-02-23T16:19:19;10.20;99.90
49224;DHT22;35050;51.316;5.994;2023-02-23T16:21:54;10.20;99.90
49224;DHT22;35050;51.316;5.994;2023-02-23T16:24:24;10.20;99.90
49224;DHT22;35050;51.316;5.994;2023-02-23T16:27:00;10.20;99.90
49224;DHT22;35050;51.316;5.994;2023-02-23T16:29:32;10.30;99.90
49224;DHT22;35050;51.316;5.994;2023-02-23T16:32:02;10.20;99.90
49224;DHT22;35050;51.316;5.994;2023-02-23T16:34:33;10.20;99.90
49224;DHT22;35050;51.316;5.994;2023-02-23T16:37:03;10.20;99.90
49224;DHT22;35050;51.316;5.994;2023-02-23T16:39:40;10.10;99.90
49224;DHT22;35050;51.316;5.994;2023-02-23T16:42:16;10.10;99.90
49224;DHT22;35050;51.316;5.994;2023-02-23T16:44:45;10.20;99.90
49224;DHT22;35050;51.316;5.994;2023-02-23T16:47:47;10.10;99.90
49224;DHT22;35050;51.316;5.994;2023-02-23T16:52:44;10.10;99.90
49224;DHT22;35050;51.316;5.994;2023-02-23T16:55:14;9.90;99.90
49224;DHT22;35050;51.316;5.994;2023-02-23T16:57:46;9.80;99.90
49224;DHT22;35050;51.316;5.994;2023-02-23T17:00:20;9.90;99.90
49224;DHT22;35050;51.316;5.994;2023-02-23T17:02:47;9.70;99.90
49224;DHT22;35050;51.316;5.994;2023-02-23T17:05:15;9.80;99.90
49224;DHT22;35050;51.316;5.994;2023-02-23T17:07:44;9.70;99.90
49224;DHT22;35050;51.316;5.994;2023-02-23T17:10:16;9.60;99.90
49224;DHT22;35050;51.316;5.994;2023-02-23T17:12:50;9.70;99.90
49224;DHT22;35050;51.316;5.994;2023-02-23T17:15:18;9.60;99.90
49224;DHT22;35050;51.316;5.994;2023-02-23T17:17:44;9.70;99.90
49224;DHT22;35050;51.316;5.994;2023-02-23T17:20:10;9.50;99.90
49224;DHT22;35050;51.316;5.994;2023-02-23T17:22:42;9.60;99.90
49224;DHT22;35050;51.316;5.994;2023-02-23T17:25:09;9.60;99.90
49224;DHT22;35050;51.316;5.994;2023-02-23T17:27:35;9.60;99.90
49224;DHT22;35050;51.316;5.994;2023-02-23T17:30:00;9.60;99.90
49224;DHT22;35050;51.316;5.994;2023-02-23T17:32:26;9.60;99.90
49224;DHT22;35050;51.316;5.994;2023-02-23T17:34:54;9.60;99.90
49224;DHT22;35050;51.316;5.994;2023-02-23T17:37:20;9.60;99.90
49224;DHT22;35050;51.316;5.994;2023-02-23T17:39:46;9.60;99.90
49224;DHT22;35050;51.316;5.994;2023-02-23T17:42:16;9.60;99.90
49224;DHT22;35050;51.316;5.994;2023-02-23T17:44:42;9.50;99.90
49224;DHT22;35050;51.316;5.994;2023-02-23T17:47:07;9.60;99.90
49224;DHT22;35050;51.316;5.994;2023-02-23T17:49:33;9.70;99.90
49224;DHT22;35050;51.316;5.994;2023-02-23T17:51:58;9.70;99.90
49224;DHT22;35050;51.316;5.994;2023-02-23T17:54:27;9.70;99.90
49224;DHT22;35050;51.316;5.994;2023-02-23T17:56:53;9.70;99.90
49224;DHT22;35050;51.316;5.994;2023-02-23T17:59:19;9.60;99.90
49224;DHT22;35050;51.316;5.994;2023-02-23T18:01:44;9.70;99.90
49224;DHT22;35050;51.316;5.994;2023-02-23T18:04:11;9.60;99.90
49224;DHT22;35050;51.316;5.994;2023-02-23T18:06:36;9.70;99.90
49224;DHT22;35050;51.316;5.994;2023-02-23T18:09:02;9.70;99.90
49224;DHT22;35050;51.316;5.994;2023-02-23T18:11:30;9.60;99.90
49224;DHT22;35050;51.316;5.994;2023-02-23T18:13:58;9.60;99.90
49224;DHT22;35050;51.316;5.994;2023-02-23T18:16:26;9.60;99.90
49224;DHT22;35050;51.316;5.994;2023-02-23T18:18:53;9.60;99.90
49224;DHT22;35050;51.316;5.994;2023-02-23T18:21:21;9.70;99.90
49224;DHT22;35050;51.316;5.994;2023-02-23T18:23:47;9.70;99.90